Time;durP1;ratioP1;P1;durP2;ratioP2;P2;SDS_P1;SDS_P2;PMS_P1;PMS_P2;Temp;Humidity;BMP_temperature;BMP_pressure;BME280_temperature;BME280_humidity;BME280_pressure;Samples;Min_cycle;Max_cycle;Signal;HPM_P1;HPM_P2
2022/11/03 00:01:45;;;;;;;2.05;1.80;;;;;;;2.95;55.73;99954.25;6016953;23;20043;-81
2022/11/03 00:04:13;;;;;;;2.10;1.90;;;;;;;2.86;55.89;99951.44;5992835;23;20019;-81
2022/11/03 00:06:41;;;;;;;2.40;1.75;;;;;;;2.94;56.00;99955.06;6019636;23;20047;-84
2022/11/03 00:09:10;;;;;;;2.38;1.88;;;;;;;2.80;56.11;99915.28;6040970;23;20413;-83
2022/11/03 00:11:40;;;;;;;1.92;1.83;;;;;;;2.79;55.74;99928.97;6041151;23;20101;-81
2022/11/03 00:14:08;;;;;;;2.55;2.17;;;;;;;2.62;55.77;99914.00;6017546;23;20023;-81
2022/11/03 00:16:34;;;;;;;3.80;2.10;;;;;;;2.71;56.08;99927.09;5997272;23;20046;-79
2022/11/03 00:19:01;;;;;;;3.45;2.50;;;;;;;2.66;55.98;99923.53;6054532;23;20461;-80
2022/11/03 00:21:28;;;;;;;2.95;2.45;;;;;;;2.45;56.09;99905.88;6054175;23;20015;-80
2022/11/03 00:23:54;;;;;;;2.80;1.90;;;;;;;2.84;56.38;99958.25;6044956;23;20343;-82
2022/11/03 00:26:23;;;;;;;2.38;1.88;;;;;;;2.90;56.39;99962.66;5994330;23;20023;-83
2022/11/03 00:28:52;;;;;;;1.92;1.73;;;;;;;2.64;56.19;99914.91;6019431;23;20019;-82
2022/11/03 00:31:24;;;;;;;9.93;2.13;;;;;;;2.92;56.32;99954.16;6054651;23;20069;-82
2022/11/03 00:33:51;;;;;;;2.00;1.60;;;;;;;2.96;55.74;99962.81;6027588;23;20019;-78
2022/11/03 00:36:26;;;;;;;2.28;1.70;;;;;;;2.89;56.40;99941.22;6056638;23;20023;-86
2022/11/03 00:38:53;;;;;;;1.90;1.70;;;;;;;2.83;56.18;99934.25;6045129;23;20023;-84
2022/11/03 00:41:20;;;;;;;2.33;1.88;;;;;;;2.81;55.85;99927.31;6018715;23;20045;-82
2022/11/03 00:43:48;;;;;;;2.35;1.63;;;;;;;2.81;55.82;99932.44;6022477;23;20369;-86
2022/11/03 00:46:17;;;;;;;2.85;1.83;;;;;;;2.86;55.98;99946.28;6022764;23;20023;-85
2022/11/03 00:48:44;;;;;;;1.90;1.70;;;;;;;2.88;55.74;99970.34;6044256;23;20051;-87
2022/11/03 00:51:11;;;;;;;3.50;1.85;;;;;;;2.88;56.13;99984.88;6044490;23;20019;-80
2022/11/03 00:53:46;;;;;;;3.92;1.77;;;;;;;2.81;55.94;99978.72;6042281;23;20046;-79
2022/11/03 00:56:14;;;;;;;3.00;1.52;;;;;;;2.59;56.17;99949.91;6018777;23;20113;-84
2022/11/03 00:58:42;;;;;;;1.90;1.77;;;;;;;2.65;56.04;99965.47;6018819;23;20030;-81
2022/11/03 01:01:13;;;;;;;2.22;1.67;;;;;;;2.33;56.00;99936.38;6017548;23;20106;-84
2022/11/03 01:06:48;;;;;;;2.33;1.90;;;;;;;2.54;56.16;99984.88;6044768;23;20027;-83
2022/11/03 01:09:13;;;;;;;2.10;1.80;;;;;;;2.44;56.52;99988.03;6044591;23;20054;-80
2022/11/03 01:11:42;;;;;;;2.30;2.00;;;;;;;2.14;56.21;99947.84;5998870;23;20075;-79
2022/11/03 01:14:14;;;;;;;2.80;1.92;;;;;;;2.42;56.36;99985.44;6050905;23;20027;-81
2022/11/03 01:16:41;;;;;;;2.95;1.90;;;;;;;2.46;56.33;99983.81;6043346;23;20502;-81
2022/11/03 01:19:07;;;;;;;2.40;1.92;;;;;;;2.45;56.64;99976.94;6043366;23;20026;-82
2022/11/03 01:21:34;;;;;;;2.72;1.95;;;;;;;2.48;56.41;99977.03;6043226;23;20020;-82
2022/11/03 01:24:01;;;;;;;2.58;2.00;;;;;;;2.48;56.52;99982.16;6017954;23;20053;-82
2022/11/03 01:26:27;;;;;;;2.20;1.90;;;;;;;2.45;56.40;99974.38;5994145;23;20019;-80
2022/11/03 01:28:54;;;;;;;3.25;2.15;;;;;;;2.47;56.08;99981.28;5996893;23;20062;-81
2022/11/03 01:31:23;;;;;;;5.97;3.08;;;;;;;2.24;56.48;99953.25;6047876;23;20015;-81
2022/11/03 01:33:54;;;;;;;3.45;2.40;;;;;;;2.47;55.90;99986.41;6029943;23;20019;-82
2022/11/03 01:36:21;;;;;;;3.33;2.50;;;;;;;2.45;56.65;99979.50;6059370;23;20033;-82
2022/11/03 01:38:47;;;;;;;2.92;2.22;;;;;;;2.24;56.21;99960.97;6032393;23;20053;-80
2022/11/03 01:41:17;;;;;;;3.53;2.53;;;;;;;2.34;56.32;99984.34;6003767;23;20354;-81
2022/11/03 01:43:43;;;;;;;3.67;2.72;;;;;;;2.12;56.28;99960.66;6003207;23;20117;-81
2022/11/03 01:46:27;;;;;;;4.15;2.95;;;;;;;2.17;56.67;99963.31;6052903;23;20019;-81
2022/11/03 01:49:07;;;;;;;3.25;2.65;;;;;;;2.17;56.59;99958.19;6052471;23;20027;-81
2022/11/03 01:51:36;;;;;;;3.80;2.83;;;;;;;2.31;56.61;99974.88;6042936;23;20015;-81
2022/11/03 01:54:11;;;;;;;3.47;2.47;;;;;;;2.19;56.67;99967.69;6016569;23;20457;-80
2022/11/03 01:56:42;;;;;;;5.35;2.90;;;;;;;2.13;56.55;99943.53;6041708;23;20174;-80
2022/11/03 01:59:09;;;;;;;4.63;2.97;;;;;;;2.36;56.41;99980.97;6002281;23;20494;-80
2022/11/03 02:01:35;;;;;;;4.68;3.08;;;;;;;2.28;56.55;99967.09;6051655;23;20021;-80
2022/11/03 02:04:17;;;;;;;4.60;3.20;;;;;;;2.50;56.95;99990.78;6051083;23;20023;-83
2022/11/03 02:06:43;;;;;;;4.13;3.10;;;;;;;2.43;56.40;99987.16;6051661;23;20361;-83
2022/11/03 02:09:10;;;;;;;3.40;2.55;;;;;;;2.47;56.73;99985.56;6005433;23;20029;-82
2022/11/03 02:14:22;;;;;;;6.60;2.60;;;;;;;2.08;55.99;99976.78;6033235;23;20051;-83
2022/11/03 02:16:53;;;;;;;3.28;2.35;;;;;;;2.12;56.98;99986.31;6020661;23;20447;-84
2022/11/03 02:19:33;;;;;;;3.00;2.50;;;;;;;2.00;55.88;99985.94;5971401;23;20023;-84
2022/11/03 02:22:40;;;;;;;3.25;2.63;;;;;;;1.82;57.33;99976.91;5994264;23;20047;-83
2022/11/03 02:25:25;;;;;;;3.15;2.38;;;;;;;1.96;57.14;99987.56;5905254;24;20033;-84
2022/11/03 02:27:51;;;;;;;3.45;2.45;;;;;;;2.01;57.10;99990.25;5906083;24;20403;-85
2022/11/03 02:30:17;;;;;;;2.75;2.10;;;;;;;1.94;57.48;99958.41;5983661;23;20023;-83
2022/11/03 02:33:12;;;;;;;3.58;2.47;;;;;;;1.87;57.33;99938.56;6043425;23;20050;-85
2022/11/03 02:35:52;;;;;;;3.13;2.50;;;;;;;2.03;57.05;99948.41;6016362;23;20027;-85
2022/11/03 02:38:20;;;;;;;3.55;2.30;;;;;;;2.08;57.03;99938.28;6043982;23;20015;-84
2022/11/03 02:40:51;;;;;;;4.32;2.40;;;;;;;1.87;57.27;99900.06;6019119;23;20023;-86
2022/11/03 02:43:20;;;;;;;3.08;2.13;;;;;;;1.91;56.90;99918.16;6043303;23;20027;-82
2022/11/03 02:45:48;;;;;;;4.97;2.63;;;;;;;2.11;56.88;99970.03;6017249;23;20484;-82
2022/11/03 02:48:16;;;;;;;7.57;3.90;;;;;;;2.18;57.01;99983.94;6018281;23;20026;-83
2022/11/03 02:50:43;;;;;;;4.10;2.55;;;;;;;1.97;57.15;99934.56;6042936;23;20022;-83
2022/11/03 02:53:13;;;;;;;2.28;1.90;;;;;;;2.35;57.37;99980.94;5995071;23;20023;-83
2022/11/03 02:55:45;;;;;;;3.15;2.38;;;;;;;2.41;56.79;99988.84;6044482;23;20022;-83
2022/11/03 02:58:14;;;;;;;;;;;;;;;2.43;57.19;99992.28;6042581;23;20057;-83
2022/11/03 03:01:01;;;;;;;2.70;1.98;;;;;;;2.32;56.92;99991.13;6041437;23;20340;-83
2022/11/03 03:03:51;;;;;;;2.58;2.03;;;;;;;2.17;56.99;99963.31;6025180;23;20023;-81
2022/11/03 03:06:24;;;;;;;4.65;2.92;;;;;;;2.15;57.38;99952.16;6044162;23;20074;-79
2022/11/03 03:08:56;;;;;;;3.28;2.17;;;;;;;2.24;57.13;99965.25;6021601;23;20023;-82
2022/11/03 03:11:35;;;;;;;3.30;2.50;;;;;;;2.37;57.00;99980.16;5999126;23;20030;-81
2022/11/03 03:14:12;;;;;;;4.47;2.15;;;;;;;2.03;57.07;99933.03;6046144;23;20023;-79
2022/11/03 03:16:47;;;;;;;2.97;2.08;;;;;;;2.39;56.83;99986.22;6043381;23;20054;-82
2022/11/03 03:19:27;;;;;;;2.90;2.20;;;;;;;2.34;57.21;99971.50;6020358;23;20116;-85
2022/11/03 03:21:58;;;;;;;3.17;2.67;;;;;;;2.40;57.11;99989.66;6023617;23;20035;-78
2022/11/03 03:25:10;;;;;;;4.20;2.47;;;;;;;2.39;56.65;99985.34;6027716;23;20100;-81
2022/11/03 03:27:40;;;;;;;11.65;5.53;;;;;;;2.22;57.30;99977.16;5897774;24;20052;-79
2022/11/03 03:30:07;;;;;;;4.13;2.92;;;;;;;1.75;56.92;99898.00;5974624;23;20022;-80
2022/11/03 03:32:40;;;;;;;3.72;2.75;;;;;;;1.99;56.98;99923.50;6002851;23;20104;-80
2022/11/03 03:35:15;;;;;;;4.93;2.95;;;;;;;2.41;57.27;99993.97;6062417;23;20007;-85
2022/11/03 03:37:46;;;;;;;4.40;3.38;;;;;;;2.30;56.77;99983.41;6021387;23;20023;-80
2022/11/03 03:40:18;;;;;;;5.80;3.60;;;;;;;2.25;56.58;99979.84;6063885;23;20015;-80
2022/11/03 03:42:46;;;;;;;5.57;3.42;;;;;;;1.99;57.01;99944.03;6038781;23;20019;-80
2022/11/03 03:45:14;;;;;;;5.30;3.67;;;;;;;1.98;57.06;99933.72;6057655;23;20019;-79
2022/11/03 03:47:40;;;;;;;6.07;4.07;;;;;;;1.94;56.87;99938.78;6030386;23;20023;-82
2022/11/03 03:50:07;;;;;;;5.05;3.10;;;;;;;2.31;56.65;99986.81;6029840;23;20011;-81
2022/11/03 03:52:35;;;;;;;4.78;3.10;;;;;;;2.13;56.70;99962.38;6053559;23;20100;-81
2022/11/03 03:55:01;;;;;;;4.15;3.10;;;;;;;2.28;56.78;100002.16;6004435;23;20026;-80
2022/11/03 03:57:30;;;;;;;4.47;3.20;;;;;;;2.31;57.21;99998.00;6045829;23;20407;-83
2022/11/03 03:59:57;;;;;;;6.28;3.88;;;;;;;1.96;56.89;99936.22;6025295;23;20023;-82
2022/11/03 04:02:23;;;;;;;6.30;3.42;;;;;;;1.99;57.21;99931.19;5997277;23;20030;-82
2022/11/03 04:04:49;;;;;;;4.63;3.30;;;;;;;1.94;56.92;99925.06;6018177;23;20030;-81
2022/11/03 04:09:59;;;;;;;3.88;2.83;;;;;;;2.29;56.86;99994.50;6007021;23;20079;-83
2022/11/03 04:23:26;;;;;;;3.88;2.63;;;;;;;1.83;57.17;99937.56;6019937;23;20102;-84
2022/11/03 04:25:54;;;;;;;4.10;2.35;;;;;;;1.12;56.76;99815.84;5974432;23;20019;-85
2022/11/03 04:28:20;;;;;;;3.72;2.80;;;;;;;1.66;57.03;99911.41;5968412;23;20019;-86
2022/11/03 04:30:50;;;;;;;5.18;2.90;;;;;;;1.44;56.90;99871.47;5993488;23;20050;-86
2022/11/03 04:33:20;;;;;;;3.40;2.60;;;;;;;1.70;57.34;99914.97;5970342;23;20020;-84
2022/11/03 04:35:47;;;;;;;4.32;2.85;;;;;;;2.16;56.85;100000.09;6017565;23;20023;-85
2022/11/03 04:38:16;;;;;;;3.30;2.63;;;;;;;2.26;56.90;100013.25;6020528;23;20043;-83
2022/11/03 04:41:02;;;;;;;3.92;2.50;;;;;;;1.48;57.32;99902.38;6016672;23;20020;-87
2022/11/03 04:43:36;;;;;;;3.05;2.58;;;;;;;1.57;57.17;99903.47;5994275;23;20028;-87
2022/11/03 04:46:04;;;;;;;2.78;2.40;;;;;;;1.32;56.88;99871.97;5994013;23;20020;-82
2022/11/03 04:48:33;;;;;;;3.33;2.55;;;;;;;2.23;57.11;100030.28;5972211;23;20019;-86
2022/11/03 04:51:05;;;;;;;3.20;2.63;;;;;;;2.25;57.38;100015.78;5969048;23;20022;-87
2022/11/03 04:53:32;;;;;;;3.47;2.90;;;;;;;1.87;56.64;99971.91;6015574;23;20044;-82
2022/11/03 04:55:59;;;;;;;3.47;2.70;;;;;;;1.86;56.77;99975.31;5994876;23;20589;-83
2022/11/03 04:58:33;;;;;;;5.35;2.88;;;;;;;1.45;57.28;99916.81;5992176;23;20024;-82
2022/11/03 05:01:01;;;;;;;2.85;2.45;;;;;;;1.63;57.13;99942.16;5994007;23;20081;-79
2022/11/03 05:03:35;;;;;;;3.20;2.38;;;;;;;1.98;57.32;99995.34;6000563;23;20039;-83
2022/11/03 05:06:23;;;;;;;2.88;2.25;;;;;;;2.10;57.14;100017.06;5985825;23;20051;-84
2022/11/03 05:08:54;;;;;;;2.63;2.05;;;;;;;2.07;57.27;100006.72;5957610;23;20427;-83
2022/11/03 05:11:31;;;;;;;4.35;2.33;;;;;;;2.08;56.84;100015.28;6002629;23;20030;-83
2022/11/03 05:14:03;;;;;;;4.90;2.72;;;;;;;1.89;57.19;99973.69;6002079;23;20035;-83
2022/11/03 05:16:30;;;;;;;5.88;2.47;;;;;;;1.80;57.00;99973.41;6020594;23;20027;-86
2022/11/03 05:18:56;;;;;;;3.13;2.30;;;;;;;1.46;57.41;99927.09;6018802;23;20022;-84
2022/11/03 05:21:25;;;;;;;3.70;2.03;;;;;;;1.39;57.44;99912.38;5970581;23;20016;-80
2022/11/03 05:23:56;;;;;;;5.75;2.65;;;;;;;1.49;57.39;99904.09;5947346;23;20034;-84
2022/11/03 05:26:29;;;;;;;3.93;2.50;;;;;;;1.67;57.16;99926.00;5950190;23;20020;-84
2022/11/03 05:29:12;;;;;;;3.85;2.75;;;;;;;1.22;57.16;99858.00;5993171;23;20020;-87
2022/11/03 05:31:51;;;;;;;3.40;2.50;;;;;;;1.82;56.81;99938.41;6017481;23;20023;-91
2022/11/03 05:34:26;;;;;;;;;;;;;;;2.39;57.21;100024.75;5948283;23;20025;-84
2022/11/03 05:36:53;;;;;;;2.80;2.42;;;;;;;1.35;56.99;99844.72;6025936;23;19942;-87
2022/11/03 05:39:25;;;;;;;3.13;2.30;;;;;;;2.47;57.23;100024.09;6024403;23;20524;-87
2022/11/03 05:41:51;;;;;;;4.30;2.95;;;;;;;2.50;57.03;100031.88;6028796;23;20019;-83
2022/11/03 05:44:29;;;;;;;4.18;2.67;;;;;;;2.48;56.46;100025.81;5986977;23;20034;-82
2022/11/03 05:46:57;;;;;;;3.67;2.85;;;;;;;2.37;56.61;100007.56;6001867;23;20019;-80
2022/11/03 05:49:26;;;;;;;5.43;3.38;;;;;;;2.32;56.68;99992.00;6018767;23;20048;-85
2022/11/03 05:51:52;;;;;;;3.88;2.90;;;;;;;1.57;56.34;99859.88;5995143;23;20015;-85
2022/11/03 05:54:23;;;;;;;6.72;3.78;;;;;;;2.15;56.63;99963.31;5974047;23;20036;-85
2022/11/03 05:56:49;;;;;;;3.92;3.05;;;;;;;2.41;56.14;100005.09;6022087;23;20004;-81
2022/11/03 05:59:19;;;;;;;5.22;3.45;;;;;;;2.45;56.11;100006.03;6035292;23;20004;-87
2022/11/03 06:01:45;;;;;;;5.60;3.47;;;;;;;2.62;56.15;100033.91;5966730;23;20028;-84
2022/11/03 06:04:12;;;;;;;6.35;3.63;;;;;;;2.33;56.22;99952.63;6013379;23;20004;-83
2022/11/03 06:06:38;;;;;;;6.32;3.28;;;;;;;2.72;56.31;100035.88;6012962;23;20003;-85
2022/11/03 06:09:22;;;;;;;4.03;3.33;;;;;;;2.07;55.92;99929.72;5966792;23;20063;-86
2022/11/03 06:11:54;;;;;;;5.97;2.75;;;;;;;2.50;55.92;100009.63;5990115;23;20020;-83
2022/11/03 06:14:38;;;;;;;6.07;3.03;;;;;;;2.65;55.65;100041.72;5987983;23;20028;-84
2022/11/03 06:17:28;;;;;;;5.93;2.90;;;;;;;1.61;56.24;99901.03;5989737;23;20011;-84
2022/11/03 06:20:27;;;;;;;6.20;2.83;;;;;;;1.79;56.50;99915.22;6036275;23;20038;-81
2022/11/03 06:22:55;;;;;;;3.50;2.67;;;;;;;1.83;56.62;99911.06;5989419;23;20020;-84
2022/11/03 06:25:34;;;;;;;3.88;3.10;;;;;;;2.71;56.51;100042.75;6036448;23;20008;-84
2022/11/03 06:28:10;;;;;;;5.00;3.00;;;;;;;1.39;55.74;99824.28;6036160;23;20026;-83
2022/11/03 06:30:41;;;;;;;3.92;2.40;;;;;;;1.50;56.85;99831.47;5988127;23;20020;-80
2022/11/03 06:33:25;;;;;;;4.15;2.60;;;;;;;1.83;56.11;99895.66;6035075;23;20032;-85
2022/11/03 06:36:12;;;;;;;;;;;;;;;2.85;55.76;100039.66;6034267;23;20023;-83
2022/11/03 06:39:02;;;;;;;6.32;2.63;;;;;;;1.61;56.04;99811.25;6005986;23;20360;-84
2022/11/03 06:41:36;;;;;;;4.78;2.85;;;;;;;3.07;55.92;100035.97;5977190;23;20024;-83
2022/11/03 06:44:27;;;;;;;6.50;3.25;;;;;;;1.87;55.33;99831.63;6024460;23;20107;-84
2022/11/03 06:47:01;;;;;;;8.82;4.28;;;;;;;2.48;55.25;99948.75;6005732;23;20063;-84
2022/11/03 06:49:34;;;;;;;5.72;3.20;;;;;;;2.19;55.53;99884.66;5958843;23;20039;-82
2022/11/03 06:55:08;;;;;;;10.48;3.22;;;;;;;3.30;55.33;100030.53;6089779;23;20069;-81
2022/11/03 06:57:39;;;;;;;7.60;4.03;;;;;;;2.50;55.48;99927.41;6066772;23;20003;-83
2022/11/03 07:00:19;;;;;;;9.63;3.72;;;;;;;3.25;55.21;100042.38;6043200;23;20022;-83
2022/11/03 07:06:26;;;;;;;4.03;2.72;;;;;;;3.22;55.50;100048.31;6123961;23;20030;-83
2022/11/03 07:09:03;;;;;;;6.72;3.33;;;;;;;2.70;55.68;99978.44;6057423;23;20093;-82
2022/11/03 07:11:49;;;;;;;4.30;3.00;;;;;;;2.46;54.90;99940.16;6069384;23;20049;-84
2022/11/03 07:14:21;;;;;;;4.57;2.95;;;;;;;2.83;55.54;99992.47;6078043;23;20018;-81
2022/11/03 07:16:54;;;;;;;4.55;3.00;;;;;;;2.32;54.94;99908.94;6066675;23;20425;-81
2022/11/03 07:19:28;;;;;;;6.95;3.10;;;;;;;3.19;54.86;100035.41;6075890;23;20030;-83
2022/11/03 07:22:07;;;;;;;6.03;3.60;;;;;;;3.28;54.86;100058.75;6101022;23;20014;-83
2022/11/03 07:24:47;;;;;;;4.43;2.90;;;;;;;3.23;54.91;100051.78;6069261;23;20026;-83
2022/11/03 07:27:27;;;;;;;5.70;3.25;;;;;;;2.98;54.73;100007.44;6055538;23;20037;-82
2022/11/03 07:29:58;;;;;;;5.97;3.13;;;;;;;2.61;55.03;99945.66;6076009;23;20022;-82
2022/11/03 07:32:31;;;;;;;4.88;3.28;;;;;;;3.17;55.15;100024.19;6098457;23;20022;-84
2022/11/03 07:35:48;;;;;;;10.68;3.72;;;;;;;2.63;54.60;99933.72;6095895;23;20018;-83
2022/11/03 07:38:28;;;;;;;8.48;3.72;;;;;;;3.20;54.71;100024.25;6023457;23;20109;-81
2022/11/03 07:41:03;;;;;;;12.05;4.90;;;;;;;3.36;55.08;100076.09;6069818;23;20018;-83
2022/11/03 07:43:39;;;;;;;8.30;3.97;;;;;;;2.69;54.44;99951.00;6047946;23;20027;-84
2022/11/03 07:46:19;;;;;;;5.03;3.80;;;;;;;3.00;54.38;99990.34;6025337;23;20025;-82
2022/11/03 07:48:56;;;;;;;5.25;3.55;;;;;;;2.78;54.29;99924.66;6031473;23;20018;-85
2022/11/03 07:51:40;;;;;;;4.45;3.70;;;;;;;3.21;54.39;100005.41;6055544;23;20050;-84
2022/11/03 07:54:29;;;;;;;7.43;3.15;;;;;;;3.25;54.17;99993.53;6076094;23;20515;-86
2022/11/03 07:57:21;;;;;;;7.80;3.63;;;;;;;2.84;55.11;99923.13;6103363;23;20018;-88
2022/11/03 08:00:38;;;;;;;4.20;3.00;;;;;;;3.74;54.39;100068.41;6031522;23;20023;-85
2022/11/03 08:04:05;;;;;;;10.07;3.50;;;;;;;3.83;53.63;100053.19;6068184;23;20468;-81
2022/11/03 08:06:38;;;;;;;6.93;3.70;;;;;;;3.86;54.33;100062.69;6052229;23;20408;-82
2022/11/03 08:09:05;;;;;;;3.63;3.17;;;;;;;2.43;53.90;99817.63;6103122;23;20018;-80
2022/11/03 08:11:37;;;;;;;7.30;3.67;;;;;;;3.86;54.05;100058.38;6115314;23;20046;-86
2022/11/03 08:14:08;;;;;;;11.73;4.35;;;;;;;3.38;54.29;99956.94;6083812;23;20021;-88
2022/11/03 08:16:34;;;;;;;7.13;3.45;;;;;;;2.70;53.68;99852.53;6081039;23;20014;-82
2022/11/03 08:19:08;;;;;;;9.45;3.88;;;;;;;3.96;54.45;100064.66;6101646;23;20167;-87
2022/11/03 08:21:39;;;;;;;5.60;3.80;;;;;;;3.57;54.38;99989.13;6054317;23;20014;-87
2022/11/03 08:24:06;;;;;;;6.80;3.70;;;;;;;3.30;54.07;99918.19;6077702;23;20026;-86
2022/11/03 08:26:36;;;;;;;4.63;3.55;;;;;;;3.52;53.89;99933.25;6077101;23;20022;-84
2022/11/03 08:29:05;;;;;;;5.53;3.58;;;;;;;3.29;53.77;99924.16;6074645;23;20464;-83
2022/11/03 08:31:31;;;;;;;6.85;3.28;;;;;;;3.30;53.77;99905.34;6103156;23;20020;-89
2022/11/03 08:34:17;;;;;;;4.18;2.95;;;;;;;3.92;54.15;100013.91;6075412;23;20018;-84
2022/11/03 08:37:08;;;;;;;3.75;2.42;;;;;;;3.70;53.33;99963.66;6078015;23;20026;-84
2022/11/03 08:39:35;;;;;;;4.28;2.60;;;;;;;3.21;53.11;99889.69;6051574;23;20022;-84
2022/11/03 08:42:07;;;;;;;4.40;2.53;;;;;;;3.77;53.67;99970.69;6100862;23;20148;-85
2022/11/03 08:44:53;;;;;;;11.00;2.72;;;;;;;2.95;53.55;99838.56;6077064;23;20055;-84
2022/11/03 08:48:12;;;;;;;6.20;2.47;;;;;;;4.25;52.99;100041.19;6097072;23;20018;-83
2022/11/03 08:51:17;;;;;;;5.82;2.83;;;;;;;3.18;53.08;99879.34;6099511;23;20018;-86
2022/11/03 08:53:56;;;;;;;3.45;2.90;;;;;;;4.20;53.13;100054.00;6077579;23;20108;-83
2022/11/03 08:56:31;;;;;;;5.40;2.90;;;;;;;3.75;52.84;99964.63;6101756;23;20117;-79
2022/11/03 08:58:57;;;;;;;4.80;2.90;;;;;;;4.01;52.24;100016.66;6073893;23;20158;-81
2022/11/03 09:01:23;;;;;;;20.77;3.42;;;;;;;3.73;52.71;99971.44;6097768;23;20042;-84
2022/11/03 09:03:54;;;;;;;5.28;2.58;;;;;;;3.46;52.96;99934.84;6102215;23;20029;-86
2022/11/03 09:06:21;;;;;;;7.20;3.00;;;;;;;3.68;53.25;99966.19;6077721;23;20042;-84
2022/11/03 09:08:51;;;;;;;4.68;2.70;;;;;;;4.16;53.55;100046.16;6077085;23;20026;-84
2022/11/03 09:11:20;;;;;;;3.92;2.90;;;;;;;4.20;52.99;100042.78;6077408;23;20058;-84
2022/11/03 09:13:46;;;;;;;6.32;2.90;;;;;;;4.16;53.00;100023.00;6051911;23;20070;-84
2022/11/03 09:16:13;;;;;;;3.10;2.47;;;;;;;3.25;52.76;99858.06;6078960;23;20061;-85
2022/11/03 09:18:40;;;;;;;6.88;3.30;;;;;;;3.59;52.66;99950.53;6075012;23;20025;-81
2022/11/03 09:21:13;;;;;;;8.30;3.60;;;;;;;3.49;52.98;99936.59;6104998;23;20010;-84
2022/11/03 09:23:43;;;;;;;7.72;3.67;;;;;;;4.21;52.59;100029.97;6078204;23;20113;-84
2022/11/03 09:26:13;;;;;;;5.75;3.47;;;;;;;2.95;52.64;99820.56;6075085;23;20420;-83
2022/11/03 09:28:39;;;;;;;5.90;3.05;;;;;;;4.01;52.72;99980.59;6075860;23;20527;-87
2022/11/03 09:31:05;;;;;;;7.80;3.75;;;;;;;3.88;52.10;99996.66;6103025;23;20018;-84
2022/11/03 09:33:31;;;;;;;6.20;3.33;;;;;;;4.01;52.54;100005.50;6101454;23;20026;-85
2022/11/03 09:36:04;;;;;;;5.25;3.58;;;;;;;3.73;52.44;99937.97;6078272;23;20025;-82
2022/11/03 09:38:30;;;;;;;9.27;3.80;;;;;;;4.12;52.77;99993.69;6105337;23;20046;-83
2022/11/03 09:40:57;;;;;;;5.22;3.45;;;;;;;4.10;52.53;99974.78;6106875;23;20021;-84
2022/11/03 09:43:23;;;;;;;5.75;3.40;;;;;;;3.29;52.40;99831.56;6080452;23;20030;-84
2022/11/03 09:45:55;;;;;;;7.40;3.80;;;;;;;3.20;52.23;99833.94;6102771;23;20416;-84
2022/11/03 09:48:22;;;;;;;6.70;3.10;;;;;;;4.32;51.85;100008.69;6081830;23;20025;-82
2022/11/03 09:50:53;;;;;;;4.75;3.35;;;;;;;3.68;52.61;99899.28;6110311;23;20014;-83
2022/11/03 09:53:22;;;;;;;6.43;3.08;;;;;;;4.17;52.36;99989.53;6114275;23;20025;-83
2022/11/03 09:56:13;;;;;;;6.28;3.28;;;;;;;3.75;52.00;99914.00;6090029;23;20022;-82
2022/11/03 09:58:42;;;;;;;4.15;2.45;;;;;;;4.42;52.57;100009.75;6096743;23;20029;-84
2022/11/03 10:01:26;;;;;;;6.75;2.63;;;;;;;4.58;51.92;100027.25;6119777;23;20100;-84
2022/11/03 10:04:13;;;;;;;8.18;3.90;;;;;;;3.41;52.15;99848.97;6095318;23;20018;-85
2022/11/03 10:06:48;;;;;;;5.88;4.03;;;;;;;3.76;51.24;99912.31;6068870;23;20014;-81
2022/11/03 10:09:36;;;;;;;6.28;3.55;;;;;;;4.02;52.02;99974.63;6116541;23;20019;-81
2022/11/03 10:12:19;;;;;;;10.90;5.60;;;;;;;3.95;51.56;99959.03;6085612;23;20018;-81
2022/11/03 10:14:48;;;;;;;7.43;4.22;;;;;;;4.37;52.17;100020.84;6106069;23;20026;-85
2022/11/03 10:17:19;;;;;;;12.25;5.25;;;;;;;4.49;51.95;100030.53;6054794;23;20050;-80
2022/11/03 10:19:55;;;;;;;19.52;9.85;;;;;;;3.20;51.60;99833.94;6054231;23;20082;-82
2022/11/03 10:22:24;;;;;;;227.23;102.07;;;;;;;4.50;51.80;100052.00;6105042;23;20014;-84
2022/11/03 10:25:34;;;;;;;136.43;55.85;;;;;;;3.26;51.56;99846.94;6081420;23;20101;-83
2022/11/03 10:28:26;;;;;;;221.80;108.53;;;;;;;4.35;51.45;100031.94;6053040;23;20018;-83
2022/11/03 10:31:20;;;;;;;7.65;4.78;;;;;;;4.11;51.45;100040.91;6106384;23;20041;-83
2022/11/03 10:33:53;;;;;;;5.80;4.25;;;;;;;3.82;51.85;99994.81;6110878;23;20018;-83
2022/11/03 10:36:19;;;;;;;5.72;4.30;;;;;;;4.02;51.87;100033.84;6113112;23;20018;-79
2022/11/03 10:38:47;;;;;;;180.35;84.88;;;;;;;4.10;51.53;100051.19;6089467;23;20022;-80
2022/11/03 10:41:19;;;;;;;21.38;11.52;;;;;;;3.72;51.61;99951.69;6080057;23;20082;-82
2022/11/03 10:44:04;;;;;;;;;;;;;;;4.09;52.12;100034.84;6112019;23;20022;-80
2022/11/03 10:46:33;;;;;;;3.85;3.20;;;;;;;3.90;52.31;100034.44;6109701;23;19936;-83
2022/11/03 10:49:17;;;;;;;5.45;2.83;;;;;;;3.88;52.51;100035.25;6085434;23;20352;-80
2022/11/03 10:51:46;;;;;;;3.95;2.72;;;;;;;3.62;51.99;99989.22;6108806;23;20109;-81
2022/11/03 10:54:15;;;;;;;4.55;3.22;;;;;;;3.72;52.27;100010.88;6060762;23;20022;-84
2022/11/03 10:56:46;;;;;;;4.22;2.72;;;;;;;3.83;52.30;100009.44;6116421;23;20030;-81
2022/11/03 10:59:35;;;;;;;4.32;2.72;;;;;;;3.97;52.46;100026.88;6094358;23;20025;-82
2022/11/03 11:02:17;;;;;;;6.30;3.10;;;;;;;3.40;52.04;99929.56;6119944;23;20050;-82
2022/11/03 11:04:48;;;;;;;25.15;10.55;;;;;;;3.68;52.72;99979.06;6120467;23;20026;-78
2022/11/03 11:07:28;;;;;;;5.13;3.05;;;;;;;2.84;52.38;99861.44;6099143;23;20003;-80
2022/11/03 11:09:55;;;;;;;7.22;4.10;;;;;;;2.77;52.43;99856.09;6120611;23;20023;-83
2022/11/03 11:12:26;;;;;;;9.05;3.53;;;;;;;3.74;52.45;100006.63;6120416;23;20023;-80
2022/11/03 11:15:01;;;;;;;5.32;3.80;;;;;;;3.19;52.73;99913.63;6117530;23;20018;-82
2022/11/03 11:21:19;;;;;;;8.77;4.63;;;;;;;4.00;51.81;100029.53;6107692;23;20034;-84
2022/11/03 11:23:52;;;;;;;7.95;4.57;;;;;;;3.52;52.16;99954.69;6110016;23;20508;-82
2022/11/03 11:26:25;;;;;;;7.10;4.35;;;;;;;4.07;52.48;100031.41;6107664;23;20022;-86
2022/11/03 11:29:15;;;;;;;5.90;3.55;;;;;;;3.08;52.21;99864.53;6110517;23;20031;-82
2022/11/03 11:31:45;;;;;;;6.22;3.80;;;;;;;3.55;52.48;99929.03;6070486;23;20015;-84
2022/11/03 11:34:25;;;;;;;6.18;4.20;;;;;;;4.22;51.91;100020.53;6083366;23;20018;-83
2022/11/03 11:37:13;;;;;;;13.23;4.45;;;;;;;4.25;52.59;100024.88;6081285;23;20045;-84
2022/11/03 11:39:43;;;;;;;14.43;4.97;;;;;;;3.85;52.38;99956.28;6105795;23;20052;-82
2022/11/03 11:42:16;;;;;;;6.05;4.45;;;;;;;4.12;51.89;100016.88;6076998;23;20018;-83
2022/11/03 11:44:50;;;;;;;6.78;4.32;;;;;;;4.19;51.58;100026.50;6077245;23;20079;-84
2022/11/03 11:47:35;;;;;;;5.95;3.55;;;;;;;3.41;52.14;99904.72;6102345;23;20022;-82
2022/11/03 11:50:13;;;;;;;11.57;7.78;;;;;;;4.13;52.41;100023.78;6078999;23;20150;-82
2022/11/03 11:52:50;;;;;;;101.40;56.17;;;;;;;3.27;52.06;99905.25;6103371;23;20077;-81
2022/11/03 11:55:57;;;;;;;30.33;13.95;;;;;;;2.66;51.98;99768.47;6103920;23;20014;-85
2022/11/03 11:58:44;;;;;;;13.07;8.27;;;;;;;4.15;52.01;100029.84;6105807;23;20042;-81
2022/11/03 12:01:31;;;;;;;7.38;4.55;;;;;;;4.05;51.78;100026.19;6111878;23;20044;-82
2022/11/03 12:04:04;;;;;;;7.70;5.80;;;;;;;2.74;51.87;99843.19;6065592;23;20024;-83
2022/11/03 12:06:41;;;;;;;6.30;5.68;;;;;;;3.42;51.97;99927.88;6110001;23;20022;-83
2022/11/03 12:09:29;;;;;;;9.93;5.65;;;;;;;3.47;52.66;99930.56;6084484;23;20185;-82
2022/11/03 12:12:19;;;;;;;;;;;;;;;;;;;;;
2022/11/03 12:14:56;;;;;;;9.90;5.97;;;;;;;3.13;52.52;99893.81;6111683;23;20018;-81
2022/11/03 12:17:34;;;;;;;7.18;5.68;;;;;;;3.96;52.26;100025.13;6084038;23;20022;-82
2022/11/03 12:20:22;;;;;;;12.10;6.05;;;;;;;3.52;52.22;99964.97;6052974;23;20131;-84
2022/11/03 12:22:49;;;;;;;10.23;6.03;;;;;;;3.41;52.58;99957.03;6105606;23;20029;-82
2022/11/03 12:25:44;;;;;;;10.45;5.97;;;;;;;3.73;52.42;100033.22;6108449;23;20376;-81
2022/11/03 12:28:29;;;;;;;9.95;6.53;;;;;;;3.44;52.71;99984.50;6084807;23;20018;-81
2022/11/03 12:30:55;;;;;;;10.18;5.60;;;;;;;2.98;52.51;99908.00;6082869;23;20524;-78
2022/11/03 12:33:22;;;;;;;8.27;5.53;;;;;;;3.14;53.09;99921.25;6103935;23;20014;-83
2022/11/03 12:35:49;;;;;;;5.85;4.63;;;;;;;3.68;52.41;100027.09;6076953;23;20025;-83
2022/11/03 12:38:23;;;;;;;6.00;4.57;;;;;;;3.52;53.49;99997.59;6078506;23;20018;-83
2022/11/03 12:40:50;;;;;;;6.88;4.80;;;;;;;3.21;52.92;99942.84;6077404;23;20073;-87
2022/11/03 12:43:25;;;;;;;9.68;4.82;;;;;;;2.51;53.05;99831.53;6102707;23;20026;-83
2022/11/03 12:46:03;;;;;;;7.15;4.35;;;;;;;3.35;52.80;99981.75;6076814;23;20425;-79